»·PEaware :: N118V L52-L88

N118V :: L52-L88

FLIGHT INFORMATION

Flight Status: Arrived
Operator: Privately registered:
United States
More flights under this callsign
Pilot: John W. (45621)
Aircraft: BEECH AIRCRAFT DEBONAIR BONANZA
(BE33)
More flights by this aircraft type
Origin: L52 Oceano Co
United States
Destination: L88 New Cuyama
United States
More flights between these airports :: More routes between these airports
Route:
File this flight plan on PilotEdge
Remarks:
Altitude:
(Current/Filed)
7,500ft
Speed:
(Current/Filed)
150kts
Departed: 26-Nov-23 06:49 PM
Arrived: 26-Nov-23 07:23 PM
Distance/Time
Traveled:
47nm/0:34
Distance/Time
To Go:
Arrived

Flight Plot

Page will automatically refresh every two minutes.


Map Options




Map Legend


Flown Route
Filed Route
Departure Airport
Arrival Airport
Navaid (VOR, NDB)
Fix

Horizontal Profiles

Position Reports

Time Latitude Longitude Heading Altitude Ground
Speed
26-Nov-23 18:32 35.102102 -120.622276 0 16ft 0kts
26-Nov-23 18:33 35.102102 -120.622276 212 16ft 0kts
26-Nov-23 18:34 35.102102 -120.622276 212 16ft 0kts
26-Nov-23 18:35 35.102102 -120.622276 212 16ft 0kts
26-Nov-23 18:36 35.102102 -120.622276 212 16ft 0kts
26-Nov-23 18:37 35.102102 -120.622276 212 16ft 0kts
26-Nov-23 18:38 35.102102 -120.622276 212 16ft 0kts
26-Nov-23 18:39 35.102102 -120.622276 212 16ft 0kts
26-Nov-23 18:40 35.102102 -120.622276 212 16ft 0kts
26-Nov-23 18:42 35.102102 -120.622276 212 16ft 0kts
26-Nov-23 18:43 35.102102 -120.622276 212 16ft 0kts
26-Nov-23 18:44 35.102102 -120.622276 212 16ft 0kts
26-Nov-23 18:45 35.102102 -120.622276 212 16ft 0kts
26-Nov-23 18:46 35.101459 -120.622522 213 15ft 16kts
26-Nov-23 18:47 35.100087 -120.620559 123 17ft 4kts
26-Nov-23 18:48 35.099626 -120.619683 110 17ft 5kts
26-Nov-23 18:49 35.105586 -120.629384 294 311ft 77kts
26-Nov-23 18:50 35.097497 -120.642432 128 1294ft 106kts
26-Nov-23 18:51 35.084583 -120.608742 101 2105ft 115kts
26-Nov-23 18:52 35.082697 -120.563077 74 2145ft 152kts
26-Nov-23 18:53 35.084965 -120.514902 110 2704ft 136kts
26-Nov-23 18:54 35.058856 -120.484741 152 3441ft 131kts
26-Nov-23 18:55 35.029187 -120.461512 121 4241ft 126kts
26-Nov-23 18:56 35.018034 -120.422403 86 5043ft 122kts
26-Nov-23 18:57 35.022554 -120.381956 77 5816ft 120kts
26-Nov-23 18:58 35.026905 -120.342976 78 6509ft 125kts
26-Nov-23 18:59 35.032530 -120.298656 77 7087ft 134kts
26-Nov-23 19:00 35.034788 -120.252873 87 7541ft 147kts
26-Nov-23 19:01 35.031872 -120.199676 93 7528ft 163kts
26-Nov-23 19:02 35.021272 -120.145324 100 7526ft 167kts
26-Nov-23 19:02 35.022727 -120.099935 98 7524ft 166kts
26-Nov-23 19:04 35.026552 -120.034894 95 7518ft 168kts
26-Nov-23 19:05 35.015619 -119.980042 100 7534ft 167kts
26-Nov-23 19:06 35.005840 -119.925137 91 7529ft 166kts
26-Nov-23 19:07 35.008309 -119.869861 76 7531ft 164kts
26-Nov-23 19:07 35.013284 -119.827412 80 7416ft 147kts
26-Nov-23 19:09 35.004729 -119.770774 120 6230ft 161kts
26-Nov-23 19:09 34.985104 -119.732767 121 5591ft 152kts
26-Nov-23 19:10 34.963317 -119.685419 115 5200ft 174kts
26-Nov-23 19:12 34.938328 -119.622085 113 4728ft 180kts
26-Nov-23 19:13 34.917173 -119.566674 113 4325ft 181kts
26-Nov-23 19:13 34.904658 -119.520140 102 4382ft 168kts
26-Nov-23 19:14 34.887337 -119.472106 146 4800ft 156kts
26-Nov-23 19:15 34.854335 -119.490136 260 5170ft 154kts
26-Nov-23 19:17 34.862347 -119.553077 285 4920ft 170kts
26-Nov-23 19:17 34.873775 -119.599293 285 4432ft 174kts
26-Nov-23 19:18 34.887393 -119.652528 291 4304ft 154kts
26-Nov-23 19:19 34.910054 -119.694154 311 4018ft 157kts
26-Nov-23 19:20 34.940304 -119.725143 327 2846ft 112kts
26-Nov-23 19:21 34.952206 -119.707759 129 2566ft 113kts
26-Nov-23 19:22 34.939845 -119.685212 125 2178ft 37kts
26-Nov-23 19:23 34.939955 -119.685489 276 2176ft 30kts
26-Nov-23 19:24 34.942916 -119.691088 23 2154ft 6kts
26-Nov-23 19:25 34.943303 -119.690956 3 2154ft 0kts
26-Nov-23 19:26 34.943303 -119.690956 3 2154ft 0kts
26-Nov-23 19:27 34.943303 -119.690956 3 2154ft 0kts
26-Nov-23 19:28 34.943311 -119.690955 3 2154ft 0kts
26-Nov-23 19:29 34.943320 -119.690954 3 2154ft 0kts

Navigation Log

Ident Type
Flight plan parsing failed, navigation log unavailable